Time;durP1;ratioP1;P1;durP2;ratioP2;P2;SDS_P1;SDS_P2;PMS_P1;PMS_P2;Temp;Humidity;BMP_temperature;BMP_pressure;BME280_temperature;BME280_humidity;BME280_pressure;Samples;Min_cycle;Max_cycle;Signal;HPM_P1;HPM_P2
2023/11/02 00:02:52;;;;;;;2.60;0.70;;;;;;;10.90;100.00;96854.47;15270258;19;20334;-50
2023/11/02 00:08:18;;;;;;;1.45;0.65;;;;;;;10.79;100.00;96837.03;15277575;19;20023;-50
2023/11/02 00:13:44;;;;;;;1.88;0.63;;;;;;;10.72;100.00;96829.94;15273430;19;20089;-51
2023/11/02 00:19:11;;;;;;;1.40;0.70;;;;;;;10.63;100.00;96826.63;15277127;19;20010;-54
2023/11/02 00:24:39;;;;;;;2.35;0.70;;;;;;;10.55;100.00;96829.47;15018855;19;5001114;-51
2023/11/02 00:30:05;;;;;;;1.13;0.55;;;;;;;10.44;100.00;96823.63;15273690;19;20023;-50
2023/11/02 00:35:33;;;;;;;3.22;0.50;;;;;;;10.29;100.00;96829.13;15274666;19;20011;-50
2023/11/02 00:40:58;;;;;;;0.70;0.50;;;;;;;10.22;100.00;96816.66;15275261;19;20073;-54
2023/11/02 00:46:23;;;;;;;2.22;0.80;;;;;;;10.13;100.00;96800.69;15277328;19;20464;-53
2023/11/02 00:51:52;;;;;;;1.15;0.50;;;;;;;10.08;100.00;96791.53;15274847;19;20006;-56
2023/11/02 00:57:18;;;;;;;1.10;0.55;;;;;;;10.02;100.00;96787.78;15274272;19;20019;-51
2023/11/02 01:02:44;;;;;;;2.60;0.60;;;;;;;9.95;100.00;96776.13;15265705;19;20035;-52
2023/11/02 01:08:13;;;;;;;3.38;0.60;;;;;;;9.89;100.00;96771.56;15272800;19;20043;-50
2023/11/02 01:13:37;;;;;;;1.75;0.50;;;;;;;9.84;100.00;96761.41;15243571;19;20006;-52
2023/11/02 01:19:10;;;;;;;1.95;0.60;;;;;;;9.80;100.00;96758.28;15274134;19;20089;-50
2023/11/02 01:24:40;;;;;;;1.48;0.50;;;;;;;9.79;100.00;96734.25;15266435;19;20014;-50
2023/11/02 01:30:12;;;;;;;1.10;0.47;;;;;;;9.75;100.00;96731.13;15267087;19;20018;-52
2023/11/02 01:35:49;;;;;;;1.40;0.60;;;;;;;9.71;100.00;96713.72;15269022;19;20007;-51
2023/11/02 01:41:19;;;;;;;2.92;0.55;;;;;;;9.66;100.00;96700.06;15269765;19;20026;-51
2023/11/02 01:46:55;;;;;;;0.97;0.37;;;;;;;9.61;100.00;96694.44;15272387;19;20031;-50
2023/11/02 01:52:43;;;;;;;0.93;0.50;;;;;;;9.61;100.00;96703.34;15271759;19;20014;-51
2023/11/02 01:58:18;;;;;;;2.63;0.70;;;;;;;9.54;100.00;96694.38;15271039;19;20022;-51
2023/11/02 02:03:51;;;;;;;0.70;0.60;;;;;;;9.44;100.00;96678.63;15289984;19;20101;-53
2023/11/02 02:09:43;;;;;;;0.93;0.40;;;;;;;9.37;100.00;96670.53;15263752;19;20078;-54
2023/11/02 02:15:18;;;;;;;3.97;0.67;;;;;;;9.30;100.00;96660.75;15268348;19;20026;-55
2023/11/02 02:20:45;;;;;;;1.52;0.50;;;;;;;9.19;100.00;96657.59;15266675;19;20471;-57
2023/11/02 02:26:38;;;;;;;0.75;0.47;;;;;;;9.07;100.00;96653.78;15269214;19;20432;-58
2023/11/02 02:32:20;;;;;;;1.17;0.50;;;;;;;8.92;100.00;96649.31;15266292;19;20085;-58
2023/11/02 02:37:53;;;;;;;3.20;0.57;;;;;;;8.80;100.00;96632.09;15270772;19;20022;-55
2023/11/02 02:43:21;;;;;;;1.92;0.60;;;;;;;8.72;100.00;96624.19;15273684;19;20620;-56
2023/11/02 02:48:48;;;;;;;0.90;0.40;;;;;;;8.66;100.00;96611.53;15281878;19;20433;-55
2023/11/02 02:54:17;;;;;;;1.13;0.60;;;;;;;8.58;100.00;96591.03;15277324;19;20508;-56
2023/11/02 02:59:45;;;;;;;1.27;0.45;;;;;;;8.52;100.00;96581.06;15283905;19;20014;-57
2023/11/02 03:05:11;;;;;;;1.65;0.50;;;;;;;8.42;100.00;96554.53;15273191;19;20018;-57
2023/11/02 03:10:41;;;;;;;2.63;0.50;;;;;;;8.37;100.00;96555.09;15276097;19;20018;-62
2023/11/02 03:16:09;;;;;;;0.63;0.50;;;;;;;8.36;100.00;96548.06;15273321;19;20081;-58
2023/11/02 03:21:34;;;;;;;1.13;0.55;;;;;;;8.31;100.00;96537.94;15279448;19;20018;-52
2023/11/02 03:27:07;;;;;;;7.80;0.60;;;;;;;8.26;100.00;96531.47;15282041;19;20433;-57
2023/11/02 03:32:39;;;;;;;1.70;0.50;;;;;;;8.18;100.00;96535.13;15276585;19;20011;-57
2023/11/02 03:38:14;;;;;;;2.10;0.40;;;;;;;8.18;100.00;96513.66;15279791;19;20010;-58
2023/11/02 03:43:57;;;;;;;0.93;0.60;;;;;;;8.21;100.00;96515.97;15274815;19;20031;-56
2023/11/02 03:49:31;;;;;;;1.95;0.50;;;;;;;8.24;100.00;96512.91;15278772;19;20447;-54
2023/11/02 03:55:11;;;;;;;1.75;0.60;;;;;;;8.26;100.00;96510.88;15274091;19;20479;-56
2023/11/02 04:00:43;;;;;;;1.50;0.57;;;;;;;8.27;100.00;96496.44;15278460;19;20018;-53
2023/11/02 04:06:14;;;;;;;1.65;0.45;;;;;;;8.24;100.00;96475.34;15276813;19;20014;-51
2023/11/02 04:11:45;;;;;;;1.17;0.50;;;;;;;8.18;100.00;96458.19;15270115;19;20022;-53
2023/11/02 04:17:14;;;;;;;0.50;0.38;;;;;;;8.09;100.00;96445.09;15271030;19;20047;-51
2023/11/02 04:22:38;;;;;;;0.82;0.50;;;;;;;8.00;100.00;96444.41;15275753;19;20023;-51
2023/11/02 04:28:04;;;;;;;1.80;0.40;;;;;;;7.90;100.00;96409.06;15276609;19;20018;-51
2023/11/02 04:33:38;;;;;;;0.82;0.50;;;;;;;7.82;100.00;96402.84;15272710;19;20019;-50
2023/11/02 04:39:03;;;;;;;1.67;0.63;;;;;;;7.76;100.00;96395.56;15278516;19;20015;-50
2023/11/02 04:44:28;;;;;;;1.60;0.50;;;;;;;7.72;100.00;96392.44;15267734;19;20019;-50
2023/11/02 04:49:56;;;;;;;1.33;0.55;;;;;;;7.69;100.00;96371.41;15271676;19;20018;-53
2023/11/02 04:55:20;;;;;;;0.57;0.50;;;;;;;7.65;100.00;96363.91;15277132;19;20006;-52
2023/11/02 05:00:45;;;;;;;2.60;0.43;;;;;;;7.62;100.00;96342.88;15270733;19;20030;-52
2023/11/02 05:06:12;;;;;;;0.70;0.55;;;;;;;7.61;100.00;96334.00;15275522;19;20014;-50
2023/11/02 05:11:37;;;;;;;1.30;0.55;;;;;;;7.60;100.00;96332.34;15269731;19;20018;-50
2023/11/02 05:17:02;;;;;;;2.53;0.68;;;;;;;7.61;100.00;96328.66;15275595;19;20051;-50
2023/11/02 05:22:30;;;;;;;2.55;0.63;;;;;;;7.67;100.00;96325.22;15267400;19;20018;-51
2023/11/02 05:27:54;;;;;;;1.45;0.80;;;;;;;7.66;100.00;96310.16;15272579;19;20488;-51
2023/11/02 05:33:25;;;;;;;1.60;0.60;;;;;;;7.69;100.00;96300.88;15267862;19;20015;-49
2023/11/02 05:38:53;;;;;;;3.03;0.70;;;;;;;7.69;100.00;96287.47;15272882;19;20699;-50
2023/11/02 05:44:18;;;;;;;2.05;0.73;;;;;;;7.70;100.00;96268.50;15268145;19;20021;-50
2023/11/02 05:49:43;;;;;;;2.30;0.70;;;;;;;7.69;100.00;96266.88;15271753;19;20043;-51
2023/11/02 05:55:13;;;;;;;1.45;0.70;;;;;;;7.72;100.00;96262.97;15264417;19;20629;-48
2023/11/02 06:00:38;;;;;;;1.83;0.60;;;;;;;7.74;100.00;96265.44;15267614;19;20010;-50
2023/11/02 06:06:03;;;;;;;1.63;0.45;;;;;;;7.78;100.00;96261.38;15270669;19;20074;-50
2023/11/02 06:11:31;;;;;;;1.20;0.65;;;;;;;7.82;100.00;96241.19;15267460;19;20011;-51
2023/11/02 06:16:55;;;;;;;0.50;0.40;;;;;;;7.88;100.00;96229.66;15270370;19;20478;-50
2023/11/02 06:22:20;;;;;;;1.42;0.60;;;;;;;7.95;100.00;96230.50;15267417;19;20018;-50
2023/11/02 06:27:47;;;;;;;1.52;0.60;;;;;;;8.02;100.00;96223.34;15266723;19;20014;-48
2023/11/02 06:33:28;;;;;;;2.05;0.50;;;;;;;8.10;100.00;96211.63;15264815;19;20014;-51
2023/11/02 06:38:54;;;;;;;1.27;0.60;;;;;;;8.15;100.00;96186.88;15269675;19;20543;-51
2023/11/02 06:44:21;;;;;;;1.20;0.60;;;;;;;8.18;100.00;96186.47;15264916;19;20021;-50
2023/11/02 06:49:47;;;;;;;3.30;0.57;;;;;;;8.24;100.00;96201.75;15268474;19;20491;-50
2023/11/02 06:55:14;;;;;;;1.70;0.50;;;;;;;8.32;100.00;96204.25;15268496;19;20014;-52
2023/11/02 07:00:42;;;;;;;1.33;0.60;;;;;;;8.42;100.00;96214.63;15265487;19;20574;-51
2023/11/02 07:06:06;;;;;;;1.42;0.63;;;;;;;8.52;100.00;96198.16;15266542;19;20025;-52
2023/11/02 07:11:32;;;;;;;2.35;0.60;;;;;;;8.58;100.00;96212.63;15264873;19;20098;-49
2023/11/02 07:16:59;;;;;;;0.70;0.50;;;;;;;8.71;100.00;96172.34;15269108;19;20014;-51
2023/11/02 07:22:24;;;;;;;4.78;0.60;;;;;;;8.88;100.00;96169.28;15264149;19;20021;-49
2023/11/02 07:27:48;;;;;;;1.80;0.47;;;;;;;8.98;100.00;96163.50;15279891;19;20402;-50
2023/11/02 07:33:16;;;;;;;1.33;0.50;;;;;;;9.08;100.00;96155.88;15269468;19;20624;-49
2023/11/02 07:38:41;;;;;;;0.38;0.38;;;;;;;9.17;100.00;96146.56;15282728;19;20729;-50
2023/11/02 07:44:07;;;;;;;1.58;0.50;;;;;;;9.26;100.00;96133.72;15274962;19;20406;-49
2023/11/02 07:49:35;;;;;;;2.65;0.65;;;;;;;9.33;100.00;96106.84;15281097;19;20090;-52
2023/11/02 07:55:00;;;;;;;1.80;0.50;;;;;;;9.39;100.00;96084.50;15279648;19;20031;-50
2023/11/02 08:00:26;;;;;;;2.35;0.63;;;;;;;9.48;100.00;96098.53;15279144;19;20078;-52
2023/11/02 08:05:54;;;;;;;1.85;0.55;;;;;;;9.55;100.00;96056.31;15273504;19;20021;-51
2023/11/02 08:11:19;;;;;;;1.42;0.60;;;;;;;9.60;100.00;96053.84;15276439;19;20046;-51
2023/11/02 08:16:44;;;;;;;3.22;0.60;;;;;;;9.65;100.00;96040.56;15280116;19;20011;-48
2023/11/02 08:22:11;;;;;;;0.68;0.50;;;;;;;9.74;100.00;95995.44;15275705;19;20033;-51
2023/11/02 08:27:36;;;;;;;0.85;0.40;;;;;;;9.86;100.00;95999.09;15279459;19;20021;-51
2023/11/02 08:33:01;;;;;;;1.10;0.30;;;;;;;9.94;100.00;95999.84;15273567;19;20033;-47
2023/11/02 08:38:29;;;;;;;0.57;0.40;;;;;;;10.01;100.00;95984.53;15273389;19;20011;-52
2023/11/02 08:43:56;;;;;;;1.17;0.50;;;;;;;10.10;100.00;95975.13;15272201;19;20029;-51
2023/11/02 08:49:21;;;;;;;1.60;0.40;;;;;;;10.22;100.00;95969.03;15278334;19;20025;-51
2023/11/02 08:54:48;;;;;;;1.00;0.50;;;;;;;10.31;100.00;95951.56;15271185;19;20359;-51
2023/11/02 09:00:14;;;;;;;0.55;0.50;;;;;;;10.44;100.00;95921.88;15274825;19;20014;-50
2023/11/02 09:05:39;;;;;;;0.90;0.55;;;;;;;10.61;100.00;95948.22;15273002;19;20018;-47
2023/11/02 09:11:07;;;;;;;1.05;0.60;;;;;;;10.81;100.00;95917.56;15267964;19;20015;-47
2023/11/02 09:16:31;;;;;;;1.38;0.55;;;;;;;11.00;100.00;95939.94;15275262;19;20015;-47
2023/11/02 09:21:56;;;;;;;0.65;0.50;;;;;;;11.16;100.00;95925.03;15272796;19;20013;-48
2023/11/02 09:27:23;;;;;;;2.88;0.50;;;;;;;11.29;100.00;95907.88;15275950;19;20011;-53
2023/11/02 09:32:48;;;;;;;1.00;0.50;;;;;;;11.41;100.00;95896.09;15268409;19;20368;-49
2023/11/02 09:38:13;;;;;;;0.73;0.50;;;;;;;11.58;100.00;95884.66;15274059;19;20081;-47
2023/11/02 09:43:42;;;;;;;0.77;0.40;;;;;;;11.70;100.00;95884.69;15268053;19;20021;-53
2023/11/02 09:49:07;;;;;;;1.23;0.50;;;;;;;11.80;100.00;95876.03;15273266;19;20078;-49
2023/11/02 09:54:32;;;;;;;0.80;0.50;;;;;;;11.91;100.00;95869.81;15269771;19;20086;-50
2023/11/02 10:00:09;;;;;;;0.73;0.38;;;;;;;12.04;100.00;95865.28;15273164;19;20031;-47
2023/11/02 10:05:34;;;;;;;0.52;0.40;;;;;;;12.13;100.00;95845.00;15268839;19;20007;-48
2023/11/02 10:10:59;;;;;;;0.50;0.40;;;;;;;12.19;100.00;95827.84;15262064;19;20021;-52
2023/11/02 10:16:28;;;;;;;0.85;0.50;;;;;;;12.27;100.00;95841.00;15271396;19;20610;-48
2023/11/02 10:21:52;;;;;;;0.55;0.40;;;;;;;12.31;100.00;95846.75;15268075;19;20022;-51
2023/11/02 10:27:18;;;;;;;0.68;0.38;;;;;;;12.36;100.00;95846.03;15273608;19;20379;-50
2023/11/02 10:32:52;;;;;;;0.47;0.30;;;;;;;12.37;100.00;95831.50;15268906;19;20018;-50
2023/11/02 10:38:22;;;;;;;1.58;0.50;;;;;;;12.35;100.00;95790.41;15272225;19;20006;-51
2023/11/02 10:43:48;;;;;;;0.38;0.30;;;;;;;12.38;100.00;95769.16;15263209;19;20011;-49
2023/11/02 10:49:16;;;;;;;0.50;0.40;;;;;;;12.38;100.00;95752.16;15270828;19;20483;-47
2023/11/02 10:54:50;;;;;;;0.60;0.30;;;;;;;12.41;100.00;95740.84;15265967;19;20014;-52
2023/11/02 11:00:16;;;;;;;0.30;0.30;;;;;;;12.43;100.00;95725.22;15274633;19;20015;-47
2023/11/02 11:05:44;;;;;;;0.30;0.30;;;;;;;12.45;100.00;95698.81;15284028;19;20033;-50
2023/11/02 11:11:11;;;;;;;1.23;0.40;;;;;;;12.46;100.00;95709.41;15283978;19;20098;-55
2023/11/02 11:16:37;;;;;;;1.85;0.32;;;;;;;12.54;100.00;95713.56;15280841;19;20020;-48
2023/11/02 11:22:09;;;;;;;0.77;0.22;;;;;;;12.56;100.00;95695.25;15280693;19;20018;-55
2023/11/02 11:27:42;;;;;;;0.22;0.22;;;;;;;12.60;100.00;95684.78;15285110;19;20486;-53
2023/11/02 11:33:50;;;;;;;0.50;0.30;;;;;;;12.62;100.00;95666.47;15278430;19;20082;-50
2023/11/02 11:39:37;;;;;;;0.30;0.30;;;;;;;12.64;100.00;95640.03;15280685;19;20018;-50
2023/11/02 11:45:33;;;;;;;0.32;0.30;;;;;;;12.69;100.00;95644.72;15279183;19;20018;-51
2023/11/02 11:50:58;;;;;;;0.85;0.40;;;;;;;12.78;100.00;95648.66;15276837;19;20015;-50
2023/11/02 11:56:41;;;;;;;1.27;0.30;;;;;;;12.87;100.00;95632.84;15281113;19;20017;-48
2023/11/02 12:02:36;;;;;;;0.40;0.30;;;;;;;12.97;100.00;95621.41;15277701;19;20014;-49
2023/11/02 12:08:02;;;;;;;0.52;0.30;;;;;;;13.04;100.00;95627.47;15280722;19;20550;-50
2023/11/02 12:13:30;;;;;;;1.30;0.25;;;;;;;13.06;100.00;95626.13;15272884;19;20021;-48
2023/11/02 12:18:54;;;;;;;0.52;0.20;;;;;;;13.07;100.00;95618.88;15281806;19;20003;-47
2023/11/02 12:24:20;;;;;;;0.52;0.32;;;;;;;13.11;100.00;95636.25;15268995;19;20007;-53
2023/11/02 12:29:47;;;;;;;0.20;0.20;;;;;;;13.15;100.00;95653.59;14770648;19;10000323;-47
2023/11/02 12:35:22;;;;;;;0.45;0.20;;;;;;;13.18;100.00;95660.38;15272410;19;20385;-53
2023/11/02 12:40:51;;;;;;;1.02;0.30;;;;;;;13.21;100.00;95652.63;15277050;19;20010;-55
2023/11/02 12:46:19;;;;;;;0.20;0.20;;;;;;;13.25;100.00;95636.72;15275750;19;20006;-51
2023/11/02 12:51:43;;;;;;;0.22;0.22;;;;;;;13.29;100.00;95637.03;15275444;19;20085;-48
2023/11/02 12:57:09;;;;;;;0.30;0.20;;;;;;;13.30;100.00;95633.25;15277324;19;20013;-49
2023/11/02 13:02:36;;;;;;;0.50;0.40;;;;;;;13.28;100.00;95624.56;15270365;19;20105;-53
2023/11/02 13:08:01;;;;;;;0.30;0.30;;;;;;;13.27;100.00;95629.19;15277175;19;20022;-51
2023/11/02 13:13:27;;;;;;;0.70;0.30;;;;;;;13.30;100.00;95608.94;15271826;19;20016;-51
2023/11/02 13:18:59;;;;;;;0.50;0.30;;;;;;;13.32;100.00;95609.50;15275888;19;20749;-51
2023/11/02 13:24:23;;;;;;;0.20;0.20;;;;;;;13.39;100.00;95604.72;15265760;19;20020;-52
2023/11/02 13:29:48;;;;;;;0.15;0.08;;;;;;;13.44;100.00;95606.72;15276310;19;20369;-55
2023/11/02 13:35:23;;;;;;;1.02;0.20;;;;;;;13.44;100.00;95607.56;15268156;19;20372;-51
2023/11/02 13:40:47;;;;;;;0.43;0.20;;;;;;;13.41;100.00;95594.53;15273724;19;20021;-48
2023/11/02 13:46:13;;;;;;;0.20;0.20;;;;;;;13.36;100.00;95586.28;15272253;19;20010;-54
2023/11/02 13:51:40;;;;;;;0.30;0.10;;;;;;;13.31;100.00;95591.66;15271777;19;20017;-48
2023/11/02 13:57:06;;;;;;;0.85;0.20;;;;;;;13.25;100.00;95594.25;15268671;19;20074;-50
2023/11/02 14:02:31;;;;;;;0.30;0.20;;;;;;;13.15;100.00;95577.91;15266583;19;20018;-53
2023/11/02 14:08:01;;;;;;;0.43;0.30;;;;;;;13.08;100.00;95547.53;15272904;19;20077;-51
2023/11/02 14:13:26;;;;;;;0.63;0.43;;;;;;;13.02;100.00;95540.41;15266539;19;20524;-48
2023/11/02 14:18:51;;;;;;;0.30;0.20;;;;;;;12.94;100.00;95534.38;15271813;19;20018;-49
2023/11/02 14:24:18;;;;;;;1.27;0.20;;;;;;;12.86;100.00;95515.06;15264725;19;20010;-53
2023/11/02 14:29:43;;;;;;;0.20;0.20;;;;;;;12.79;100.00;95499.84;15265345;19;20027;-53
2023/11/02 14:35:15;;;;;;;0.60;0.38;;;;;;;12.75;100.00;95495.19;15263391;19;20040;-53
2023/11/02 14:40:42;;;;;;;0.75;0.20;;;;;;;12.68;100.00;95486.44;15268324;19;20345;-48
2023/11/02 14:46:09;;;;;;;0.40;0.25;;;;;;;12.63;100.00;95476.38;15268638;19;20489;-51
2023/11/02 14:51:34;;;;;;;0.20;0.20;;;;;;;12.56;100.00;95503.53;15267307;19;20018;-48
2023/11/02 14:57:02;;;;;;;0.20;0.20;;;;;;;12.52;100.00;95483.50;15268558;19;20308;-52
2023/11/02 15:02:27;;;;;;;0.47;0.30;;;;;;;12.46;100.00;95473.69;15260447;19;20021;-49
2023/11/02 15:07:53;;;;;;;0.63;0.30;;;;;;;12.42;100.00;95478.75;15266636;19;20016;-53
2023/11/02 15:13:20;;;;;;;0.60;0.50;;;;;;;12.39;100.00;95478.44;15262279;19;20018;-52
2023/11/02 15:18:45;;;;;;;0.65;0.60;;;;;;;12.33;100.00;95477.53;15267182;19;20133;-53
2023/11/02 15:24:10;;;;;;;0.47;0.30;;;;;;;12.25;100.00;95459.88;15261050;19;20021;-49
2023/11/02 15:29:38;;;;;;;1.15;0.45;;;;;;;12.17;100.00;95462.97;15262263;19;20070;-48
2023/11/02 15:35:09;;;;;;;1.00;0.70;;;;;;;12.06;100.00;95459.28;15258484;19;20017;-49
2023/11/02 15:40:36;;;;;;;1.10;1.00;;;;;;;11.98;100.00;95455.09;15265450;19;20022;-48
2023/11/02 15:46:05;;;;;;;1.63;0.40;;;;;;;11.90;100.00;95468.97;15269184;19;20018;-54
2023/11/02 15:51:32;;;;;;;0.45;0.38;;;;;;;11.78;100.00;95439.34;15274367;19;20095;-52
2023/11/02 15:56:59;;;;;;;0.47;0.40;;;;;;;11.70;100.00;95437.84;15280895;19;20018;-53
2023/11/02 16:02:31;;;;;;;0.45;0.25;;;;;;;11.58;100.00;95437.13;15271273;19;20483;-56
2023/11/02 16:07:57;;;;;;;0.50;0.30;;;;;;;11.48;100.00;95431.50;15270999;19;20031;-49
2023/11/02 16:13:22;;;;;;;1.20;0.50;;;;;;;11.40;100.00;95462.38;15269636;19;20789;-50
2023/11/02 16:18:50;;;;;;;0.30;0.30;;;;;;;11.36;100.00;95450.44;15279430;19;20471;-50
2023/11/02 16:24:16;;;;;;;0.55;0.40;;;;;;;11.32;100.00;95450.09;15272330;19;20038;-55
2023/11/02 16:29:42;;;;;;;0.47;0.38;;;;;;;11.30;100.00;95506.09;15276546;19;20488;-53
2023/11/02 16:35:21;;;;;;;0.60;0.38;;;;;;;11.28;100.00;95562.09;15267715;19;20014;-50
2023/11/02 16:40:49;;;;;;;0.30;0.30;;;;;;;11.24;100.00;95563.63;15270972;19;20046;-50
2023/11/02 16:46:20;;;;;;;1.77;0.50;;;;;;;11.22;100.00;95544.19;15271460;19;20018;-52
2023/11/02 16:51:49;;;;;;;2.38;0.50;;;;;;;11.17;100.00;95515.25;15271843;19;20467;-50
2023/11/02 16:57:14;;;;;;;1.13;0.60;;;;;;;11.12;100.00;95509.75;15274262;19;20036;-54
2023/11/02 17:02:39;;;;;;;0.70;0.50;;;;;;;11.08;100.00;95517.50;15272580;19;20351;-52
2023/11/02 17:08:07;;;;;;;1.15;0.68;;;;;;;11.07;100.00;95509.63;15276100;19;20021;-52
2023/11/02 17:13:31;;;;;;;2.33;0.60;;;;;;;11.05;100.00;95534.13;15267570;19;20082;-53
2023/11/02 17:18:56;;;;;;;0.60;0.40;;;;;;;11.02;100.00;95518.44;15276393;19;20033;-49
2023/11/02 17:24:25;;;;;;;1.42;0.43;;;;;;;11.00;100.00;95504.38;15214036;19;20716;-53
2023/11/02 17:29:51;;;;;;;0.95;0.50;;;;;;;10.98;100.00;95498.44;15274032;19;20591;-50
2023/11/02 17:35:24;;;;;;;1.02;0.50;;;;;;;10.97;100.00;95501.34;15266409;19;20026;-49
2023/11/02 17:40:53;;;;;;;0.32;0.32;;;;;;;10.97;100.00;95517.50;15273119;19;20027;-50
2023/11/02 17:46:18;;;;;;;0.60;0.45;;;;;;;10.96;100.00;95487.06;15264905;19;20010;-51
2023/11/02 17:51:43;;;;;;;1.42;0.50;;;;;;;10.91;100.00;95489.63;15266598;19;20010;-55
2023/11/02 17:57:13;;;;;;;0.40;0.40;;;;;;;10.88;100.00;95509.78;15263434;19;20010;-53
2023/11/02 18:02:37;;;;;;;0.60;0.60;;;;;;;10.86;100.00;95503.81;15267278;19;20019;-52
2023/11/02 18:08:02;;;;;;;2.20;0.40;;;;;;;10.83;100.00;95487.31;15272560;19;20015;-52
2023/11/02 18:13:30;;;;;;;1.55;0.60;;;;;;;10.83;100.00;95476.53;15267801;19;20015;-53
2023/11/02 18:18:55;;;;;;;3.72;0.60;;;;;;;10.79;100.00;95498.53;15266662;19;20018;-52
2023/11/02 18:24:22;;;;;;;1.20;0.65;;;;;;;10.77;100.00;95534.84;15261094;19;20630;-54
2023/11/02 18:29:50;;;;;;;1.08;0.65;;;;;;;10.72;100.00;95511.31;15265926;19;20025;-53
2023/11/02 18:35:22;;;;;;;1.23;0.80;;;;;;;10.69;100.00;95530.63;15261197;19;20353;-53
2023/11/02 18:40:49;;;;;;;1.45;0.60;;;;;;;10.67;100.00;95513.06;15267084;19;20025;-51
2023/11/02 18:46:24;;;;;;;1.17;0.70;;;;;;;10.62;100.00;95479.59;15265898;19;20484;-49
2023/11/02 18:51:49;;;;;;;1.52;0.60;;;;;;;10.58;100.00;95483.81;15264758;19;20018;-53
2023/11/02 18:57:14;;;;;;;1.02;0.57;;;;;;;10.56;100.00;95479.69;15261671;19;20015;-53
2023/11/02 19:02:41;;;;;;;0.40;0.40;;;;;;;10.56;100.00;95458.16;15259963;19;20024;-51
2023/11/02 19:08:06;;;;;;;1.98;0.60;;;;;;;10.54;100.00;95482.63;15267158;19;20018;-54
2023/11/02 19:13:31;;;;;;;1.38;1.02;;;;;;;10.53;100.00;95485.53;15259091;19;20042;-50
2023/11/02 19:18:58;;;;;;;0.73;0.57;;;;;;;10.51;100.00;95504.63;15262913;19;20039;-50
2023/11/02 19:24:25;;;;;;;1.50;0.70;;;;;;;10.46;100.00;95508.03;15273315;19;20031;-50
2023/11/02 19:29:50;;;;;;;0.82;0.57;;;;;;;10.45;100.00;95521.72;15279933;19;20371;-49
2023/11/02 19:35:24;;;;;;;2.17;0.60;;;;;;;10.43;100.00;95519.25;15272122;19;20662;-50
2023/11/02 19:40:50;;;;;;;1.65;0.90;;;;;;;10.43;100.00;95526.50;15274473;19;20341;-51
2023/11/02 19:46:16;;;;;;;1.08;0.70;;;;;;;10.43;100.00;95519.25;15277750;19;20014;-49
2023/11/02 19:51:45;;;;;;;0.60;0.40;;;;;;;10.40;100.00;95511.66;15274231;19;20010;-49
2023/11/02 19:57:10;;;;;;;0.50;0.40;;;;;;;10.41;100.00;95490.94;15275067;19;20014;-48
2023/11/02 20:02:35;;;;;;;0.82;0.40;;;;;;;10.40;100.00;95513.50;15269888;19;20480;-79
2023/11/02 20:08:02;;;;;;;0.90;0.50;;;;;;;10.39;100.00;95511.88;15291574;19;20015;-82
2023/11/02 20:13:28;;;;;;;3.33;0.50;;;;;;;10.42;100.00;95517.59;15296093;19;20015;-78
2023/11/02 20:18:52;;;;;;;0.57;0.43;;;;;;;10.41;100.00;95524.03;15286510;19;20017;-78
2023/11/02 20:24:20;;;;;;;1.00;0.43;;;;;;;10.42;100.00;95532.94;15281897;19;20010;-79
2023/11/02 20:29:45;;;;;;;1.80;0.50;;;;;;;10.41;100.00;95529.41;15274260;19;20013;-79
2023/11/02 20:35:10;;;;;;;0.90;0.57;;;;;;;10.40;100.00;95551.19;15289468;19;20498;-80
2023/11/02 20:40:38;;;;;;;0.95;0.65;;;;;;;10.37;100.00;95536.28;15297750;19;20019;-80
2023/11/02 20:46:03;;;;;;;0.55;0.40;;;;;;;10.36;100.00;95540.03;15302042;19;20035;-79
2023/11/02 20:51:28;;;;;;;0.77;0.50;;;;;;;10.35;100.00;95533.00;15311431;19;20505;-79
2023/11/02 20:56:55;;;;;;;1.35;0.50;;;;;;;10.33;100.00;95484.00;15298908;19;20062;-81
2023/11/02 21:02:22;;;;;;;0.82;0.60;;;;;;;10.33;100.00;95497.44;15302959;19;20010;-81
2023/11/02 21:07:48;;;;;;;0.50;0.50;;;;;;;10.40;100.00;95482.06;15317904;19;20046;-81
2023/11/02 21:13:16;;;;;;;0.73;0.70;;;;;;;10.40;100.00;95457.84;15331595;19;20018;-81
2023/11/02 21:18:45;;;;;;;0.63;0.43;;;;;;;10.38;100.00;95435.72;15279891;19;20635;-81
2023/11/02 21:24:10;;;;;;;0.40;0.40;;;;;;;10.37;100.00;95443.97;15279219;19;20010;-82
2023/11/02 21:29:41;;;;;;;1.13;0.52;;;;;;;10.38;100.00;95448.34;15278643;19;20054;-81
2023/11/02 21:35:06;;;;;;;1.42;0.50;;;;;;;10.37;100.00;95444.81;15287801;19;20027;-81
2023/11/02 21:40:31;;;;;;;1.75;0.40;;;;;;;10.44;100.00;95418.63;15286516;19;20006;-81
2023/11/02 21:45:58;;;;;;;0.90;0.40;;;;;;;10.46;100.00;95424.59;15289853;19;20537;-81
2023/11/02 21:51:23;;;;;;;0.60;0.47;;;;;;;10.39;100.00;95474.19;15283786;19;20837;-81
2023/11/02 21:56:50;;;;;;;1.33;0.60;;;;;;;10.40;100.00;95482.06;15284471;19;20262;-81
2023/11/02 22:02:17;;;;;;;1.58;0.60;;;;;;;10.41;100.00;95472.09;15279356;19;20043;-81
2023/11/02 22:07:42;;;;;;;0.63;0.40;;;;;;;10.39;100.00;95479.56;15289759;19;20023;-80
2023/11/02 22:13:08;;;;;;;0.85;0.43;;;;;;;10.45;100.00;95466.00;15293771;19;20011;-81
2023/11/02 22:18:35;;;;;;;0.65;0.50;;;;;;;10.44;100.00;95472.44;15293056;19;20011;-81
2023/11/02 22:24:01;;;;;;;0.88;0.43;;;;;;;10.44;100.00;95440.16;15294593;19;20644;-80
2023/11/02 22:29:25;;;;;;;1.52;0.70;;;;;;;10.44;100.00;95448.22;15295183;19;20014;-81
2023/11/02 22:34:53;;;;;;;0.98;0.40;;;;;;;10.46;100.00;95461.47;15292195;19;20014;-80
2023/11/02 22:40:19;;;;;;;0.93;0.60;;;;;;;10.43;100.00;95438.50;15289855;19;20082;-81
2023/11/02 22:45:44;;;;;;;0.50;0.50;;;;;;;10.38;100.00;95435.72;15285891;19;20371;-80
2023/11/02 22:51:21;;;;;;;0.80;0.40;;;;;;;10.35;100.00;95430.75;15264065;19;20078;-50
2023/11/02 22:56:47;;;;;;;0.45;0.40;;;;;;;10.36;100.00;95431.56;15271511;19;20549;-50
2023/11/02 23:02:12;;;;;;;1.98;0.75;;;;;;;10.39;100.00;95442.75;15281036;19;20022;-50
2023/11/02 23:07:40;;;;;;;1.35;0.68;;;;;;;10.42;100.00;95452.22;15277365;19;20018;-49
2023/11/02 23:13:09;;;;;;;1.65;0.63;;;;;;;10.42;100.00;95454.91;15282157;19;20018;-51
2023/11/02 23:18:34;;;;;;;1.30;0.50;;;;;;;10.41;100.00;95437.91;15279563;19;20019;-51
2023/11/02 23:24:01;;;;;;;0.98;0.60;;;;;;;10.43;100.00;95435.81;15280994;19;20018;-50
2023/11/02 23:29:26;;;;;;;1.70;0.60;;;;;;;10.41;100.00;95413.69;15283936;19;20408;-53
2023/11/02 23:34:50;;;;;;;1.23;0.50;;;;;;;10.39;100.00;95401.53;15279629;19;20017;-51
2023/11/02 23:40:20;;;;;;;0.40;0.40;;;;;;;10.33;100.00;95417.56;15276079;19;20018;-51
2023/11/02 23:45:44;;;;;;;0.77;0.60;;;;;;;10.29;100.00;95453.25;15275694;19;20018;-52
2023/11/02 23:51:15;;;;;;;1.95;0.70;;;;;;;10.26;100.00;95464.44;15269427;19;20021;-52
2023/11/02 23:56:44;;;;;;;2.28;0.60;;;;;;;10.17;100.00;95464.78;15273638;19;20014;-48
